sensor_id;sensor_type;location;lat;lon;timestamp;pressure;altitude;pressure_sealevel;temperature;humidity
84639;BME280;74869;51.924;5.712;2023-12-28T00:01:07;100851.34;;;9.16;80.67
84639;BME280;74869;51.924;5.712;2023-12-28T00:03:33;100852.94;;;9.17;81.35
84639;BME280;74869;51.924;5.712;2023-12-28T00:05:58;100856.19;;;9.19;81.31
84639;BME280;74869;51.924;5.712;2023-12-28T00:08:24;100866.59;;;9.15;81.17
84639;BME280;74869;51.924;5.712;2023-12-28T00:10:49;100860.44;;;9.10;81.12
84639;BME280;74869;51.924;5.712;2023-12-28T00:13:16;100872.78;;;9.16;81.08
84639;BME280;74869;51.924;5.712;2023-12-28T00:15:42;100876.81;;;9.13;81.61
84639;BME280;74869;51.924;5.712;2023-12-28T00:18:08;100875.75;;;9.14;81.71
84639;BME280;74869;51.924;5.712;2023-12-28T00:20:35;100876.53;;;9.15;81.70
84639;BME280;74869;51.924;5.712;2023-12-28T00:23:02;100883.50;;;9.16;82.08
84639;BME280;74869;51.924;5.712;2023-12-28T00:25:28;100885.38;;;9.20;81.68
84639;BME280;74869;51.924;5.712;2023-12-28T00:27:53;100895.81;;;9.22;82.19
84639;BME280;74869;51.924;5.712;2023-12-28T00:30:19;100876.53;;;9.10;81.84
84639;BME280;74869;51.924;5.712;2023-12-28T00:32:44;100895.28;;;9.20;82.86
84639;BME280;74869;51.924;5.712;2023-12-28T00:35:11;100888.31;;;9.19;82.54
84639;BME280;74869;51.924;5.712;2023-12-28T00:37:36;100890.75;;;9.20;82.41
84639;BME280;74869;51.924;5.712;2023-12-28T00:40:02;100889.38;;;9.23;82.18
84639;BME280;74869;51.924;5.712;2023-12-28T00:42:28;100900.13;;;9.28;81.95
84639;BME280;74869;51.924;5.712;2023-12-28T00:44:53;100903.84;;;9.32;82.57
84639;BME280;74869;51.924;5.712;2023-12-28T00:47:18;100903.84;;;9.32;82.34
84639;BME280;74869;51.924;5.712;2023-12-28T00:49:44;100910.81;;;9.33;83.11
84639;BME280;74869;51.924;5.712;2023-12-28T00:52:09;100904.09;;;9.36;83.14
84639;BME280;74869;51.924;5.712;2023-12-28T00:54:35;100916.69;;;9.35;82.76
84639;BME280;74869;51.924;5.712;2023-12-28T00:57:03;100914.81;;;9.36;83.14
84639;BME280;74869;51.924;5.712;2023-12-28T00:59:28;100915.63;;;9.36;82.99
84639;BME280;74869;51.924;5.712;2023-12-28T01:01:55;100919.66;;;9.39;83.25
84639;BME280;74869;51.924;5.712;2023-12-28T01:04:20;100911.09;;;9.32;83.29
84639;BME280;74869;51.924;5.712;2023-12-28T01:06:49;100910.28;;;9.36;83.38
84639;BME280;74869;51.924;5.712;2023-12-28T01:09:15;100925.81;;;9.39;83.50
84639;BME280;74869;51.924;5.712;2023-12-28T01:11:40;100923.66;;;9.41;82.85
84639;BME280;74869;51.924;5.712;2023-12-28T01:14:06;100918.84;;;9.38;82.61
84639;BME280;74869;51.924;5.712;2023-12-28T01:16:31;100927.97;;;9.37;83.32
84639;BME280;74869;51.924;5.712;2023-12-28T01:18:56;100937.59;;;9.38;83.23
84639;BME280;74869;51.924;5.712;2023-12-28T01:21:22;100911.91;;;9.27;83.36
84639;BME280;74869;51.924;5.712;2023-12-28T01:23:47;100922.34;;;9.23;83.39
84639;BME280;74869;51.924;5.712;2023-12-28T01:26:13;100923.13;;;9.24;83.08
84639;BME280;74869;51.924;5.712;2023-12-28T01:28:39;100938.69;;;9.27;83.57
84639;BME280;74869;51.924;5.712;2023-12-28T01:31:05;100938.69;;;9.27;83.62
84639;BME280;74869;51.924;5.712;2023-12-28T01:33:30;100922.59;;;9.17;83.47
84639;BME280;74869;51.924;5.712;2023-12-28T01:35:56;100933.88;;;9.14;83.54
84639;BME280;74869;51.924;5.712;2023-12-28T01:38:21;100944.03;;;9.17;83.66
84639;BME280;74869;51.924;5.712;2023-12-28T01:40:46;100943.50;;;9.20;83.65
84639;BME280;74869;51.924;5.712;2023-12-28T01:43:12;100948.88;;;9.20;84.70
84639;BME280;74869;51.924;5.712;2023-12-28T01:45:37;100932.25;;;9.13;83.79
84639;BME280;74869;51.924;5.712;2023-12-28T01:48:03;100948.06;;;9.19;84.42
84639;BME280;74869;51.924;5.712;2023-12-28T01:50:30;100952.88;;;9.22;84.68
84639;BME280;74869;51.924;5.712;2023-12-28T01:52:58;100949.38;;;9.17;84.71
84639;BME280;74869;51.924;5.712;2023-12-28T01:55:25;100944.03;;;9.17;83.92
84639;BME280;74869;51.924;5.712;2023-12-28T01:57:51;100943.22;;;9.16;85.18
84639;BME280;74869;51.924;5.712;2023-12-28T02:00:17;100926.88;;;9.03;85.44
84639;BME280;74869;51.924;5.712;2023-12-28T02:02:43;100940.84;;;9.15;84.83
84639;BME280;74869;51.924;5.712;2023-12-28T02:05:10;100954.75;;;9.17;84.88
84639;BME280;74869;51.924;5.712;2023-12-28T02:07:37;100953.13;;;9.16;85.18
84639;BME280;74869;51.924;5.712;2023-12-28T02:10:03;100953.41;;;9.09;85.18
84639;BME280;74869;51.924;5.712;2023-12-28T02:12:28;100951.53;;;9.10;85.74
84639;BME280;74869;51.924;5.712;2023-12-28T02:14:54;100956.88;;;9.10;85.15
84639;BME280;74869;51.924;5.712;2023-12-28T02:17:38;100964.91;;;9.10;85.13
84639;BME280;74869;51.924;5.712;2023-12-28T02:20:08;100949.91;;;8.99;85.04
84639;BME280;74869;51.924;5.712;2023-12-28T02:22:34;100913.47;;;8.77;85.08
84639;BME280;74869;51.924;5.712;2023-12-28T02:25:03;100955.81;;;9.06;86.16
84639;BME280;74869;51.924;5.712;2023-12-28T02:27:29;100961.19;;;9.06;85.30
84639;BME280;74869;51.924;5.712;2023-12-28T02:29:58;100932.50;;;8.96;85.84
84639;BME280;74869;51.924;5.712;2023-12-28T02:35:25;100952.59;;;9.04;86.29
84639;BME280;74869;51.924;5.712;2023-12-28T02:37:56;100951.53;;;9.05;85.41
84639;BME280;74869;51.924;5.712;2023-12-28T02:40:23;100961.44;;;9.04;85.90
84639;BME280;74869;51.924;5.712;2023-12-28T02:42:49;100952.59;;;8.99;85.67
84639;BME280;74869;51.924;5.712;2023-12-28T02:45:15;100955.00;;;9.05;86.11
84639;BME280;74869;51.924;5.712;2023-12-28T02:47:40;100949.41;;;9.07;86.06
84639;BME280;74869;51.924;5.712;2023-12-28T02:50:06;100937.31;;;8.99;86.23
84639;BME280;74869;51.924;5.712;2023-12-28T02:52:31;100939.75;;;9.01;86.24
84639;BME280;74869;51.924;5.712;2023-12-28T02:54:57;100946.44;;;9.03;86.26
84639;BME280;74869;51.924;5.712;2023-12-28T02:57:22;100933.84;;;8.99;86.04
84639;BME280;74869;51.924;5.712;2023-12-28T02:59:48;100935.44;;;9.05;86.19
84639;BME280;74869;51.924;5.712;2023-12-28T03:02:14;100930.09;;;9.05;86.69
84639;BME280;74869;51.924;5.712;2023-12-28T03:04:39;100945.66;;;9.08;86.39
84639;BME280;74869;51.924;5.712;2023-12-28T03:07:05;100929.03;;;9.06;86.42
84639;BME280;74869;51.924;5.712;2023-12-28T03:09:32;100919.38;;;9.10;86.47
84639;BME280;74869;51.924;5.712;2023-12-28T03:11:58;100934.41;;;9.21;86.64
84639;BME280;74869;51.924;5.712;2023-12-28T03:14:23;100929.03;;;9.16;86.34
84639;BME280;74869;51.924;5.712;2023-12-28T03:16:48;100911.91;;;9.12;86.06
84639;BME280;74869;51.924;5.712;2023-12-28T03:19:15;100896.34;;;9.04;85.97
84639;BME280;74869;51.924;5.712;2023-12-28T03:21:41;100923.66;;;9.16;86.18
84639;BME280;74869;51.924;5.712;2023-12-28T03:24:07;100922.59;;;9.17;86.04
84639;BME280;74869;51.924;5.712;2023-12-28T03:26:32;100921.78;;;9.16;86.08
84639;BME280;74869;51.924;5.712;2023-12-28T03:29:02;100931.72;;;9.21;85.94
84639;BME280;74869;51.924;5.712;2023-12-28T03:31:28;100921.78;;;9.16;85.87
84639;BME280;74869;51.924;5.712;2023-12-28T03:33:53;100937.63;;;9.28;86.06
84639;BME280;74869;51.924;5.712;2023-12-28T03:36:19;100936.25;;;9.36;86.01
84639;BME280;74869;51.924;5.712;2023-12-28T03:38:45;100915.09;;;9.29;85.59
84639;BME280;74869;51.924;5.712;2023-12-28T03:41:19;100947.00;;;9.46;85.74
84639;BME280;74869;51.924;5.712;2023-12-28T03:43:45;100945.38;;;9.50;86.04
84639;BME280;74869;51.924;5.712;2023-12-28T03:46:11;100937.31;;;9.55;85.78
84639;BME280;74869;51.924;5.712;2023-12-28T03:48:36;100931.69;;;9.56;85.62
84639;BME280;74869;51.924;5.712;2023-12-28T03:51:03;100930.09;;;9.55;84.81
84639;BME280;74869;51.924;5.712;2023-12-28T03:53:28;100924.72;;;9.50;84.77
84639;BME280;74869;51.924;5.712;2023-12-28T03:55:54;100934.38;;;9.51;84.87
84639;BME280;74869;51.924;5.712;2023-12-28T03:58:19;100897.94;;;9.35;84.82
84639;BME280;74869;51.924;5.712;2023-12-28T04:00:44;100917.75;;;9.59;84.93
84639;BME280;74869;51.924;5.712;2023-12-28T04:03:09;100921.50;;;9.63;84.76
84639;BME280;74869;51.924;5.712;2023-12-28T04:05:35;100906.47;;;9.62;84.84
84639;BME280;74869;51.924;5.712;2023-12-28T04:08:00;100904.84;;;9.66;84.34
84639;BME280;74869;51.924;5.712;2023-12-28T04:10:31;100911.31;;;9.65;84.22
84639;BME280;74869;51.924;5.712;2023-12-28T04:12:57;100901.38;;;9.61;84.04
84639;BME280;74869;51.924;5.712;2023-12-28T04:15:25;100914.00;;;9.65;83.79
84639;BME280;74869;51.924;5.712;2023-12-28T04:17:50;100900.56;;;9.71;84.06
84639;BME280;74869;51.924;5.712;2023-12-28T04:20:16;100903.81;;;9.62;83.69
84639;BME280;74869;51.924;5.712;2023-12-28T04:22:42;100915.84;;;9.70;84.15
84639;BME280;74869;51.924;5.712;2023-12-28T04:25:09;100916.66;;;9.71;83.81
84639;BME280;74869;51.924;5.712;2023-12-28T04:27:34;100926.03;;;9.73;82.88
84639;BME280;74869;51.924;5.712;2023-12-28T04:29:59;100912.38;;;9.64;83.31
84639;BME280;74869;51.924;5.712;2023-12-28T04:32:25;100911.31;;;9.60;82.93
84639;BME280;74869;51.924;5.712;2023-12-28T04:34:51;100914.00;;;9.55;83.72
84639;BME280;74869;51.924;5.712;2023-12-28T04:37:17;100917.22;;;9.57;83.56
84639;BME280;74869;51.924;5.712;2023-12-28T04:39:42;100900.06;;;9.48;83.67
84639;BME280;74869;51.924;5.712;2023-12-28T04:42:14;100908.13;;;9.53;83.41
84639;BME280;74869;51.924;5.712;2023-12-28T04:44:41;100911.34;;;9.50;83.52
84639;BME280;74869;51.924;5.712;2023-12-28T04:47:06;100920.44;;;9.59;83.31
84639;BME280;74869;51.924;5.712;2023-12-28T04:49:32;100919.88;;;9.62;83.02
84639;BME280;74869;51.924;5.712;2023-12-28T04:51:57;100918.28;;;9.61;83.77
84639;BME280;74869;51.924;5.712;2023-12-28T04:54:24;100912.66;;;9.58;83.00
84639;BME280;74869;51.924;5.712;2023-12-28T04:56:50;100932.75;;;9.71;83.79
84639;BME280;74869;51.924;5.712;2023-12-28T04:59:15;100920.41;;;9.70;83.17
84639;BME280;74869;51.924;5.712;2023-12-28T05:01:44;100923.88;;;9.75;82.73
84639;BME280;74869;51.924;5.712;2023-12-28T05:04:10;100926.31;;;9.72;83.07
84639;BME280;74869;51.924;5.712;2023-12-28T05:06:35;100946.13;;;9.76;82.91
84639;BME280;74869;51.924;5.712;2023-12-28T05:09:01;100925.25;;;9.73;83.14
84639;BME280;74869;51.924;5.712;2023-12-28T05:11:26;100938.91;;;9.76;82.67
84639;BME280;74869;51.924;5.712;2023-12-28T05:13:52;100936.22;;;9.76;83.03
84639;BME280;74869;51.924;5.712;2023-12-28T05:16:18;100935.97;;;9.73;82.29
84639;BME280;74869;51.924;5.712;2023-12-28T05:18:43;100939.97;;;9.75;82.78
84639;BME280;74869;51.924;5.712;2023-12-28T05:21:09;100944.53;;;9.75;82.54
84639;BME280;74869;51.924;5.712;2023-12-28T05:23:34;100942.91;;;9.74;82.27
84639;BME280;74869;51.924;5.712;2023-12-28T05:26:01;100946.66;;;9.83;82.74
84639;BME280;74869;51.924;5.712;2023-12-28T05:28:27;100960.06;;;9.88;81.80
84639;BME280;74869;51.924;5.712;2023-12-28T05:30:52;100962.22;;;9.91;81.80
84639;BME280;74869;51.924;5.712;2023-12-28T05:33:17;100943.41;;;9.86;80.85
84639;BME280;74869;51.924;5.712;2023-12-28T05:35:43;100938.59;;;9.98;81.79
84639;BME280;74869;51.924;5.712;2023-12-28T05:38:08;100942.88;;;9.94;81.17
84639;BME280;74869;51.924;5.712;2023-12-28T05:40:34;100938.59;;;9.98;80.79
84639;BME280;74869;51.924;5.712;2023-12-28T05:42:59;100951.41;;;10.06;81.13
84639;BME280;74869;51.924;5.712;2023-12-28T05:45:24;100946.63;;;10.03;80.48
84639;BME280;74869;51.924;5.712;2023-12-28T05:47:49;100957.31;;;10.08;80.22
84639;BME280;74869;51.924;5.712;2023-12-28T05:50:15;100946.34;;;10.04;80.62
84639;BME280;74869;51.924;5.712;2023-12-28T05:52:40;100951.97;;;10.08;80.12
84639;BME280;74869;51.924;5.712;2023-12-28T05:55:06;100946.59;;;10.08;80.55
84639;BME280;74869;51.924;5.712;2023-12-28T05:57:31;100939.63;;;10.07;80.32
84639;BME280;74869;51.924;5.712;2023-12-28T05:59:57;100949.28;;;10.08;80.15
84639;BME280;74869;51.924;5.712;2023-12-28T06:02:22;100954.63;;;10.13;80.47
84639;BME280;74869;51.924;5.712;2023-12-28T06:04:48;100949.28;;;10.08;80.14
84639;BME280;74869;51.924;5.712;2023-12-28T06:07:14;100956.25;;;10.09;80.42
84639;BME280;74869;51.924;5.712;2023-12-28T06:09:39;100958.41;;;10.07;80.71
84639;BME280;74869;51.924;5.712;2023-12-28T06:12:05;100962.13;;;10.16;80.46
84639;BME280;74869;51.924;5.712;2023-12-28T06:14:31;100955.16;;;10.15;80.07
84639;BME280;74869;51.924;5.712;2023-12-28T06:16:56;100957.31;;;10.13;80.78
84639;BME280;74869;51.924;5.712;2023-12-28T06:19:21;100971.00;;;10.12;80.63
84639;BME280;74869;51.924;5.712;2023-12-28T06:21:48;100969.66;;;10.14;80.20
84639;BME280;74869;51.924;5.712;2023-12-28T06:24:13;100970.22;;;10.11;80.15
84639;BME280;74869;51.924;5.712;2023-12-28T06:26:40;100971.25;;;10.15;80.18
84639;BME280;74869;51.924;5.712;2023-12-28T06:29:06;100965.63;;;10.12;79.71
84639;BME280;74869;51.924;5.712;2023-12-28T06:31:31;100984.69;;;10.20;80.14
84639;BME280;74869;51.924;5.712;2023-12-28T06:34:01;100975.56;;;10.21;79.91
84639;BME280;74869;51.924;5.712;2023-12-28T06:36:26;100976.09;;;10.18;79.85
84639;BME280;74869;51.924;5.712;2023-12-28T06:38:51;100973.94;;;10.20;79.26
84639;BME280;74869;51.924;5.712;2023-12-28T06:41:17;100978.00;;;10.18;79.77
84639;BME280;74869;51.924;5.712;2023-12-28T06:43:42;100978.78;;;10.23;79.93
84639;BME280;74869;51.924;5.712;2023-12-28T06:46:07;100975.03;;;10.19;80.22
84639;BME280;74869;51.924;5.712;2023-12-28T06:48:33;100977.72;;;10.19;79.90
84639;BME280;74869;51.924;5.712;2023-12-28T06:50:58;100969.16;;;10.17;79.31
84639;BME280;74869;51.924;5.712;2023-12-28T06:53:23;100967.50;;;10.16;78.80
84639;BME280;74869;51.924;5.712;2023-12-28T06:55:49;100979.31;;;10.20;79.97
84639;BME280;74869;51.924;5.712;2023-12-28T06:58:14;100979.84;;;10.27;79.24
84639;BME280;74869;51.924;5.712;2023-12-28T07:00:39;100986.25;;;10.31;79.25
84639;BME280;74869;51.924;5.712;2023-12-28T07:03:06;100967.78;;;10.20;79.08
84639;BME280;74869;51.924;5.712;2023-12-28T07:05:32;100978.25;;;10.21;79.09
84639;BME280;74869;51.924;5.712;2023-12-28T07:07:58;100976.88;;;10.29;79.30
84639;BME280;74869;51.924;5.712;2023-12-28T07:10:23;100974.22;;;10.24;78.96
84639;BME280;74869;51.924;5.712;2023-12-28T07:12:48;100977.19;;;10.22;79.14
84639;BME280;74869;51.924;5.712;2023-12-28T07:15:14;100985.44;;;10.31;78.65
84639;BME280;74869;51.924;5.712;2023-12-28T07:17:40;100974.22;;;10.24;78.73
84639;BME280;74869;51.924;5.712;2023-12-28T07:20:06;100958.94;;;10.09;79.15
84639;BME280;74869;51.924;5.712;2023-12-28T07:22:34;100967.00;;;10.09;79.36
84639;BME280;74869;51.924;5.712;2023-12-28T07:24:59;100991.69;;;10.11;78.74
84639;BME280;74869;51.924;5.712;2023-12-28T07:27:25;100990.84;;;10.05;78.83
84639;BME280;74869;51.924;5.712;2023-12-28T07:29:50;100995.72;;;10.03;79.47
84639;BME280;74869;51.924;5.712;2023-12-28T07:32:15;100992.75;;;10.00;79.88
84639;BME280;74869;51.924;5.712;2023-12-28T07:34:42;101006.72;;;9.97;79.71
84639;BME280;74869;51.924;5.712;2023-12-28T07:37:07;100986.88;;;9.88;79.37
84639;BME280;74869;51.924;5.712;2023-12-28T07:39:33;101019.03;;;9.93;79.64
84639;BME280;74869;51.924;5.712;2023-12-28T07:41:59;101007.25;;;9.94;80.12
84639;BME280;74869;51.924;5.712;2023-12-28T07:44:24;101011.00;;;9.93;79.84
84639;BME280;74869;51.924;5.712;2023-12-28T07:46:50;101014.22;;;9.95;79.67
84639;BME280;74869;51.924;5.712;2023-12-28T07:49:15;101038.91;;;9.97;79.28
84639;BME280;74869;51.924;5.712;2023-12-28T07:51:41;101030.88;;;9.97;79.43
84639;BME280;74869;51.924;5.712;2023-12-28T07:54:06;101044.25;;;10.02;79.24
84639;BME280;74869;51.924;5.712;2023-12-28T07:56:31;101033.53;;;9.97;79.55
84639;BME280;74869;51.924;5.712;2023-12-28T07:58:57;101039.44;;;10.04;79.90
84639;BME280;74869;51.924;5.712;2023-12-28T08:01:22;101043.44;;;10.06;79.59
84639;BME280;74869;51.924;5.712;2023-12-28T08:03:47;101032.44;;;10.08;80.00
84639;BME280;74869;51.924;5.712;2023-12-28T08:06:14;101043.47;;;10.17;79.29
84639;BME280;74869;51.924;5.712;2023-12-28T08:08:39;101039.97;;;10.11;79.04
84639;BME280;74869;51.924;5.712;2023-12-28T08:11:05;101063.03;;;10.22;78.84
84639;BME280;74869;51.924;5.712;2023-12-28T08:13:31;101052.84;;;10.19;78.68
84639;BME280;74869;51.924;5.712;2023-12-28T08:15:56;101050.94;;;10.25;78.28
84639;BME280;74869;51.924;5.712;2023-12-28T08:18:21;101052.31;;;10.22;78.51
84639;BME280;74869;51.924;5.712;2023-12-28T08:20:47;101044.25;;;10.22;79.10
84639;BME280;74869;51.924;5.712;2023-12-28T08:23:12;101044.50;;;10.31;78.64
84639;BME280;74869;51.924;5.712;2023-12-28T08:25:38;101027.34;;;10.27;78.86
84639;BME280;74869;51.924;5.712;2023-12-28T08:28:03;101042.06;;;10.39;78.73
84639;BME280;74869;51.924;5.712;2023-12-28T08:30:29;101038.56;;;10.44;78.68
84639;BME280;74869;51.924;5.712;2023-12-28T08:32:54;101035.06;;;10.49;78.30
84639;BME280;74869;51.924;5.712;2023-12-28T08:35:19;101029.13;;;10.52;78.20
84639;BME280;74869;51.924;5.712;2023-12-28T08:37:45;101043.59;;;10.66;77.79
84639;BME280;74869;51.924;5.712;2023-12-28T08:40:10;101049.50;;;10.68;77.72
84639;BME280;74869;51.924;5.712;2023-12-28T08:42:36;101052.44;;;10.66;77.64
84639;BME280;74869;51.924;5.712;2023-12-28T08:45:01;101057.28;;;10.64;77.78
84639;BME280;74869;51.924;5.712;2023-12-28T08:47:26;101064.03;;;10.62;77.88
84639;BME280;74869;51.924;5.712;2023-12-28T08:49:52;101059.44;;;10.57;77.86
84639;BME280;74869;51.924;5.712;2023-12-28T08:52:17;101068.91;;;10.50;78.80
84639;BME280;74869;51.924;5.712;2023-12-28T08:54:44;101060.31;;;10.48;77.86
84639;BME280;74869;51.924;5.712;2023-12-28T08:57:10;101068.34;;;10.48;78.58
84639;BME280;74869;51.924;5.712;2023-12-28T08:59:39;101083.38;;;10.49;78.30
84639;BME280;74869;51.924;5.712;2023-12-28T09:02:04;101079.91;;;10.48;78.61
84639;BME280;74869;51.924;5.712;2023-12-28T09:04:30;101069.97;;;10.43;78.43
84639;BME280;74869;51.924;5.712;2023-12-28T09:06:56;101077.47;;;10.52;78.55
84639;BME280;74869;51.924;5.712;2023-12-28T09:09:21;101076.41;;;10.48;78.24
84639;BME280;74869;51.924;5.712;2023-12-28T09:11:47;101047.72;;;10.33;78.09
84639;BME280;74869;51.924;5.712;2023-12-28T09:14:12;101067.81;;;10.45;77.21
84639;BME280;74869;51.924;5.712;2023-12-28T09:16:37;101082.81;;;10.52;77.90
84639;BME280;74869;51.924;5.712;2023-12-28T09:19:04;101066.72;;;10.52;77.93
84639;BME280;74869;51.924;5.712;2023-12-28T09:21:29;101078.53;;;10.56;77.58
84639;BME280;74869;51.924;5.712;2023-12-28T09:23:55;101077.16;;;10.63;77.55
84639;BME280;74869;51.924;5.712;2023-12-28T09:26:20;101085.47;;;10.67;77.13
84639;BME280;74869;51.924;5.712;2023-12-28T09:28:46;101099.97;;;10.71;76.92
84639;BME280;74869;51.924;5.712;2023-12-28T09:31:11;101090.84;;;10.67;77.55
84639;BME280;74869;51.924;5.712;2023-12-28T09:33:37;101091.38;;;10.74;76.72
84639;BME280;74869;51.924;5.712;2023-12-28T09:36:05;101102.34;;;10.77;77.00
84639;BME280;74869;51.924;5.712;2023-12-28T09:38:31;101108.00;;;10.76;77.05
84639;BME280;74869;51.924;5.712;2023-12-28T09:40:58;101115.50;;;10.79;77.23
84639;BME280;74869;51.924;5.712;2023-12-28T09:43:36;101116.06;;;10.81;77.01
84639;BME280;74869;51.924;5.712;2023-12-28T09:46:11;101114.66;;;10.89;77.51
84639;BME280;74869;51.924;5.712;2023-12-28T09:48:37;101112.50;;;11.01;77.29
84639;BME280;74869;51.924;5.712;2023-12-28T09:51:05;101103.03;;;11.08;76.74
84639;BME280;74869;51.924;5.712;2023-12-28T09:53:31;101108.38;;;11.18;76.64
84639;BME280;74869;51.924;5.712;2023-12-28T09:55:57;101114.25;;;11.25;76.17
84639;BME280;74869;51.924;5.712;2023-12-28T09:58:22;101113.69;;;11.29;75.82
84639;BME280;74869;51.924;5.712;2023-12-28T10:00:50;101118.00;;;11.24;75.30
84639;BME280;74869;51.924;5.712;2023-12-28T10:03:16;101119.13;;;11.18;75.90
84639;BME280;74869;51.924;5.712;2023-12-28T10:05:43;101109.47;;;11.12;75.95
84639;BME280;74869;51.924;5.712;2023-12-28T10:08:15;101095.00;;;11.03;76.15
84639;BME280;74869;51.924;5.712;2023-12-28T10:10:42;101096.38;;;11.01;76.15
84639;BME280;74869;51.924;5.712;2023-12-28T10:13:08;101119.13;;;11.18;75.60
84639;BME280;74869;51.924;5.712;2023-12-28T10:15:35;101094.19;;;11.03;75.58
84639;BME280;74869;51.924;5.712;2023-12-28T10:18:02;101104.59;;;11.19;75.70
84639;BME280;74869;51.924;5.712;2023-12-28T10:20:28;101080.50;;;10.99;74.79
84639;BME280;74869;51.924;5.712;2023-12-28T10:22:55;101079.44;;;11.00;75.05
84639;BME280;74869;51.924;5.712;2023-12-28T10:25:20;101106.78;;;11.12;75.73
84639;BME280;74869;51.924;5.712;2023-12-28T10:27:50;101105.72;;;11.13;75.41
84639;BME280;74869;51.924;5.712;2023-12-28T10:30:16;101090.94;;;11.11;75.68
84639;BME280;74869;51.924;5.712;2023-12-28T10:32:42;101120.16;;;11.22;75.27
84639;BME280;74869;51.924;5.712;2023-12-28T10:35:07;101124.44;;;11.29;75.55
84639;BME280;74869;51.924;5.712;2023-12-28T10:37:35;101115.78;;;11.37;74.63
84639;BME280;74869;51.924;5.712;2023-12-28T10:40:05;101111.50;;;11.36;74.93
84639;BME280;74869;51.924;5.712;2023-12-28T10:42:33;101116.84;;;11.41;74.64
84639;BME280;74869;51.924;5.712;2023-12-28T10:45:04;101118.50;;;11.32;74.40
84639;BME280;74869;51.924;5.712;2023-12-28T10:47:37;101125.75;;;11.36;74.21
84639;BME280;74869;51.924;5.712;2023-12-28T10:50:04;101130.84;;;11.38;75.02
84639;BME280;74869;51.924;5.712;2023-12-28T10:52:31;101127.59;;;11.41;74.33
84639;BME280;74869;51.924;5.712;2023-12-28T11:00:41;101124.88;;;11.46;74.03
84639;BME280;74869;51.924;5.712;2023-12-28T11:03:11;101105.53;;;11.44;74.38
84639;BME280;74869;51.924;5.712;2023-12-28T11:05:40;101125.34;;;11.58;74.88
84639;BME280;74869;51.924;5.712;2023-12-28T11:08:08;101120.75;;;11.63;74.32
84639;BME280;74869;51.924;5.712;2023-12-28T11:10:34;101108.91;;;11.59;74.09
84639;BME280;74869;51.924;5.712;2023-12-28T11:13:00;101112.38;;;11.65;73.53
84639;BME280;74869;51.924;5.712;2023-12-28T11:15:26;101103.31;;;11.56;73.22
84639;BME280;74869;51.924;5.712;2023-12-28T11:17:52;101111.66;;;11.54;74.17
84639;BME280;74869;51.924;5.712;2023-12-28T11:20:17;101104.41;;;11.50;73.81
84639;BME280;74869;51.924;5.712;2023-12-28T11:22:45;101076.50;;;11.41;74.04
84639;BME280;74869;51.924;5.712;2023-12-28T11:25:17;101070.66;;;11.29;73.94
84639;BME280;74869;51.924;5.712;2023-12-28T11:27:44;101087.78;;;11.43;73.81
84639;BME280;74869;51.924;5.712;2023-12-28T11:30:12;101085.06;;;11.48;74.26
84639;BME280;74869;51.924;5.712;2023-12-28T11:32:38;101076.47;;;11.46;74.09
84639;BME280;74869;51.924;5.712;2023-12-28T11:35:07;101091.97;;;11.59;73.43
84639;BME280;74869;51.924;5.712;2023-12-28T11:37:35;101089.81;;;11.61;73.15
84639;BME280;74869;51.924;5.712;2023-12-28T11:40:12;101092.00;;;11.54;73.68
84639;BME280;74869;51.924;5.712;2023-12-28T11:42:51;101099.28;;;11.53;73.32
84639;BME280;74869;51.924;5.712;2023-12-28T11:45:22;101087.16;;;11.56;73.85
84639;BME280;74869;51.924;5.712;2023-12-28T11:48:01;101084.84;;;11.44;73.68
84639;BME280;74869;51.924;5.712;2023-12-28T11:50:27;101090.53;;;11.38;74.00
84639;BME280;74869;51.924;5.712;2023-12-28T11:52:52;101090.56;;;11.27;74.33
84639;BME280;74869;51.924;5.712;2023-12-28T11:55:21;101082.75;;;11.31;74.63
84639;BME280;74869;51.924;5.712;2023-12-28T11:57:47;101076.03;;;11.29;74.75
84639;BME280;74869;51.924;5.712;2023-12-28T12:00:13;101088.91;;;11.37;74.05
84639;BME280;74869;51.924;5.712;2023-12-28T12:02:43;101078.16;;;11.37;74.10
84639;BME280;74869;51.924;5.712;2023-12-28T12:05:10;101066.09;;;11.29;74.58
84639;BME280;74869;51.924;5.712;2023-12-28T12:07:37;101076.28;;;11.37;74.98
84639;BME280;74869;51.924;5.712;2023-12-28T12:10:02;101073.31;;;11.34;74.27
84639;BME280;74869;51.924;5.712;2023-12-28T12:12:30;101072.28;;;11.30;74.34
84639;BME280;74869;51.924;5.712;2023-12-28T12:14:56;101068.81;;;11.24;74.43
84639;BME280;74869;51.924;5.712;2023-12-28T12:17:21;101072.81;;;11.26;74.59
84639;BME280;74869;51.924;5.712;2023-12-28T12:19:47;101063.19;;;11.25;74.64
84639;BME280;74869;51.924;5.712;2023-12-28T12:22:16;101066.91;;;11.30;74.37
84639;BME280;74869;51.924;5.712;2023-12-28T12:24:44;101062.34;;;11.30;73.90
84639;BME280;74869;51.924;5.712;2023-12-28T12:27:09;101045.72;;;11.23;74.09
84639;BME280;74869;51.924;5.712;2023-12-28T12:29:36;101041.66;;;11.25;74.09
84639;BME280;74869;51.924;5.712;2023-12-28T12:32:01;101045.41;;;11.30;74.79
84639;BME280;74869;51.924;5.712;2023-12-28T12:34:28;101046.19;;;11.30;74.21
84639;BME280;74869;51.924;5.712;2023-12-28T12:36:54;101044.84;;;11.33;74.86
84639;BME280;74869;51.924;5.712;2023-12-28T12:39:20;101036.25;;;11.31;74.07
84639;BME280;74869;51.924;5.712;2023-12-28T12:41:46;101053.19;;;11.31;73.80
84639;BME280;74869;51.924;5.712;2023-12-28T12:44:11;101036.81;;;11.27;73.85
84639;BME280;74869;51.924;5.712;2023-12-28T12:46:37;101041.06;;;11.34;73.51
84639;BME280;74869;51.924;5.712;2023-12-28T12:49:03;101052.06;;;11.37;74.30
84639;BME280;74869;51.924;5.712;2023-12-28T12:51:30;101053.69;;;11.38;73.93
84639;BME280;74869;51.924;5.712;2023-12-28T12:54:00;101034.88;;;11.33;74.10
84639;BME280;74869;51.924;5.712;2023-12-28T12:56:34;101027.13;;;11.32;74.01
84639;BME280;74869;51.924;5.712;2023-12-28T12:59:00;101051.81;;;11.39;73.18